sensor_id;sensor_type;location;lat;lon;timestamp;P1;durP1;ratioP1;P2;durP2;ratioP2
45236;SDS011;30973;51.442;3.580;2023-06-19T00:01:28;9.00;;;7.18;;
45236;SDS011;30973;51.442;3.580;2023-06-19T00:03:54;10.80;;;8.10;;
45236;SDS011;30973;51.442;3.580;2023-06-19T00:06:21;8.98;;;8.07;;
45236;SDS011;30973;51.442;3.580;2023-06-19T00:08:47;9.70;;;8.10;;
45236;SDS011;30973;51.442;3.580;2023-06-19T00:11:14;12.05;;;8.30;;
45236;SDS011;30973;51.442;3.580;2023-06-19T00:13:41;9.48;;;8.57;;
45236;SDS011;30973;51.442;3.580;2023-06-19T00:16:07;9.90;;;8.90;;
45236;SDS011;30973;51.442;3.580;2023-06-19T00:18:34;12.38;;;8.60;;
45236;SDS011;30973;51.442;3.580;2023-06-19T00:21:06;11.15;;;8.07;;
45236;SDS011;30973;51.442;3.580;2023-06-19T00:23:33;8.52;;;7.20;;
45236;SDS011;30973;51.442;3.580;2023-06-19T00:26:00;9.98;;;8.02;;
45236;SDS011;30973;51.442;3.580;2023-06-19T00:28:30;11.60;;;8.77;;
45236;SDS011;30973;51.442;3.580;2023-06-19T00:30:59;11.05;;;9.23;;
45236;SDS011;30973;51.442;3.580;2023-06-19T00:33:26;14.20;;;9.95;;
45236;SDS011;30973;51.442;3.580;2023-06-19T00:35:52;13.35;;;10.18;;
45236;SDS011;30973;51.442;3.580;2023-06-19T00:38:20;18.13;;;15.50;;
45236;SDS011;30973;51.442;3.580;2023-06-19T00:40:47;39.15;;;26.75;;
45236;SDS011;30973;51.442;3.580;2023-06-19T00:43:13;52.22;;;34.20;;
45236;SDS011;30973;51.442;3.580;2023-06-19T00:45:40;49.53;;;32.08;;
45236;SDS011;30973;51.442;3.580;2023-06-19T00:48:06;41.28;;;28.45;;
45236;SDS011;30973;51.442;3.580;2023-06-19T00:50:33;37.13;;;26.80;;
45236;SDS011;30973;51.442;3.580;2023-06-19T00:53:00;36.10;;;27.42;;
45236;SDS011;30973;51.442;3.580;2023-06-19T00:55:30;34.42;;;25.15;;
45236;SDS011;30973;51.442;3.580;2023-06-19T00:57:57;30.27;;;22.05;;
45236;SDS011;30973;51.442;3.580;2023-06-19T01:00:25;25.45;;;19.23;;
45236;SDS011;30973;51.442;3.580;2023-06-19T01:02:52;26.60;;;21.42;;
45236;SDS011;30973;51.442;3.580;2023-06-19T01:05:20;27.02;;;21.13;;
45236;SDS011;30973;51.442;3.580;2023-06-19T01:07:59;23.02;;;19.13;;
45236;SDS011;30973;51.442;3.580;2023-06-19T01:10:27;20.10;;;14.95;;
45236;SDS011;30973;51.442;3.580;2023-06-19T01:13:01;19.23;;;13.88;;
45236;SDS011;30973;51.442;3.580;2023-06-19T01:15:29;19.92;;;13.15;;
45236;SDS011;30973;51.442;3.580;2023-06-19T01:17:56;19.38;;;13.68;;
45236;SDS011;30973;51.442;3.580;2023-06-19T01:20:24;18.85;;;11.00;;
45236;SDS011;30973;51.442;3.580;2023-06-19T01:22:51;14.73;;;10.95;;
45236;SDS011;30973;51.442;3.580;2023-06-19T01:25:18;16.92;;;10.55;;
45236;SDS011;30973;51.442;3.580;2023-06-19T01:27:44;15.27;;;10.77;;
45236;SDS011;30973;51.442;3.580;2023-06-19T01:30:11;14.13;;;10.25;;
45236;SDS011;30973;51.442;3.580;2023-06-19T01:32:53;14.50;;;10.13;;
45236;SDS011;30973;51.442;3.580;2023-06-19T01:35:24;14.52;;;10.30;;
45236;SDS011;30973;51.442;3.580;2023-06-19T01:37:51;14.60;;;9.70;;
45236;SDS011;30973;51.442;3.580;2023-06-19T01:40:18;11.77;;;8.98;;
45236;SDS011;30973;51.442;3.580;2023-06-19T01:42:48;12.05;;;8.85;;
45236;SDS011;30973;51.442;3.580;2023-06-19T01:45:15;12.95;;;8.73;;
45236;SDS011;30973;51.442;3.580;2023-06-19T01:47:41;13.90;;;8.55;;
45236;SDS011;30973;51.442;3.580;2023-06-19T01:50:10;9.82;;;5.05;;
45236;SDS011;30973;51.442;3.580;2023-06-19T01:52:37;10.25;;;4.30;;
45236;SDS011;30973;51.442;3.580;2023-06-19T01:55:05;6.80;;;3.70;;
45236;SDS011;30973;51.442;3.580;2023-06-19T01:57:34;6.90;;;4.35;;
45236;SDS011;30973;51.442;3.580;2023-06-19T02:00:00;8.95;;;5.22;;
45236;SDS011;30973;51.442;3.580;2023-06-19T02:02:27;8.52;;;4.75;;
45236;SDS011;30973;51.442;3.580;2023-06-19T02:04:53;10.57;;;6.20;;
45236;SDS011;30973;51.442;3.580;2023-06-19T02:07:21;9.48;;;5.72;;
45236;SDS011;30973;51.442;3.580;2023-06-19T02:09:47;14.60;;;7.32;;
45236;SDS011;30973;51.442;3.580;2023-06-19T02:12:14;8.82;;;7.43;;
45236;SDS011;30973;51.442;3.580;2023-06-19T02:14:41;13.35;;;7.28;;
45236;SDS011;30973;51.442;3.580;2023-06-19T02:17:08;9.23;;;7.35;;
45236;SDS011;30973;51.442;3.580;2023-06-19T02:19:34;11.65;;;8.32;;
45236;SDS011;30973;51.442;3.580;2023-06-19T02:22:01;9.30;;;8.27;;
45236;SDS011;30973;51.442;3.580;2023-06-19T02:24:27;14.07;;;9.38;;
45236;SDS011;30973;51.442;3.580;2023-06-19T02:26:54;10.02;;;8.38;;
45236;SDS011;30973;51.442;3.580;2023-06-19T02:29:23;9.40;;;7.75;;
45236;SDS011;30973;51.442;3.580;2023-06-19T02:31:49;11.85;;;8.95;;
45236;SDS011;30973;51.442;3.580;2023-06-19T02:34:16;15.70;;;8.68;;
45236;SDS011;30973;51.442;3.580;2023-06-19T02:36:46;11.52;;;9.77;;
45236;SDS011;30973;51.442;3.580;2023-06-19T02:39:13;14.10;;;10.23;;
45236;SDS011;30973;51.442;3.580;2023-06-19T02:41:40;11.90;;;9.55;;
45236;SDS011;30973;51.442;3.580;2023-06-19T02:44:10;16.00;;;11.52;;
45236;SDS011;30973;51.442;3.580;2023-06-19T02:46:36;15.60;;;12.10;;
45236;SDS011;30973;51.442;3.580;2023-06-19T02:49:03;21.75;;;13.32;;
45236;SDS011;30973;51.442;3.580;2023-06-19T02:51:30;16.75;;;12.85;;
45236;SDS011;30973;51.442;3.580;2023-06-19T02:53:57;21.38;;;13.82;;
45236;SDS011;30973;51.442;3.580;2023-06-19T02:56:24;19.15;;;14.18;;
45236;SDS011;30973;51.442;3.580;2023-06-19T02:58:51;18.40;;;13.48;;
45236;SDS011;30973;51.442;3.580;2023-06-19T03:01:18;18.38;;;15.02;;
45236;SDS011;30973;51.442;3.580;2023-06-19T03:03:45;20.17;;;14.57;;
45236;SDS011;30973;51.442;3.580;2023-06-19T03:06:13;18.20;;;15.27;;
45236;SDS011;30973;51.442;3.580;2023-06-19T03:08:44;18.67;;;14.52;;
45236;SDS011;30973;51.442;3.580;2023-06-19T03:11:11;18.95;;;15.45;;
45236;SDS011;30973;51.442;3.580;2023-06-19T03:13:50;18.92;;;16.85;;
45236;SDS011;30973;51.442;3.580;2023-06-19T03:16:18;20.23;;;16.98;;
45236;SDS011;30973;51.442;3.580;2023-06-19T03:18:46;18.67;;;16.67;;
45236;SDS011;30973;51.442;3.580;2023-06-19T03:21:17;20.83;;;16.67;;
45236;SDS011;30973;51.442;3.580;2023-06-19T03:23:47;20.42;;;16.73;;
45236;SDS011;30973;51.442;3.580;2023-06-19T03:26:18;20.55;;;16.98;;
45236;SDS011;30973;51.442;3.580;2023-06-19T03:28:45;20.75;;;18.52;;
45236;SDS011;30973;51.442;3.580;2023-06-19T03:31:13;24.52;;;20.67;;
45236;SDS011;30973;51.442;3.580;2023-06-19T03:33:40;23.30;;;18.95;;
45236;SDS011;30973;51.442;3.580;2023-06-19T03:36:08;23.80;;;20.10;;
45236;SDS011;30973;51.442;3.580;2023-06-19T03:38:49;25.48;;;21.25;;
45236;SDS011;30973;51.442;3.580;2023-06-19T03:41:19;27.88;;;22.98;;
45236;SDS011;30973;51.442;3.580;2023-06-19T03:43:46;27.10;;;23.38;;
45236;SDS011;30973;51.442;3.580;2023-06-19T03:46:13;28.02;;;23.85;;
45236;SDS011;30973;51.442;3.580;2023-06-19T03:48:40;30.77;;;23.42;;
45236;SDS011;30973;51.442;3.580;2023-06-19T03:51:06;31.63;;;25.67;;
45236;SDS011;30973;51.442;3.580;2023-06-19T03:53:33;27.45;;;23.88;;
45236;SDS011;30973;51.442;3.580;2023-06-19T03:56:00;30.40;;;23.98;;
45236;SDS011;30973;51.442;3.580;2023-06-19T03:58:27;29.23;;;24.73;;
45236;SDS011;30973;51.442;3.580;2023-06-19T04:00:53;31.40;;;26.10;;
45236;SDS011;30973;51.442;3.580;2023-06-19T04:03:20;30.33;;;25.33;;
45236;SDS011;30973;51.442;3.580;2023-06-19T04:05:47;30.40;;;26.27;;
45236;SDS011;30973;51.442;3.580;2023-06-19T04:08:13;28.25;;;24.58;;
45236;SDS011;30973;51.442;3.580;2023-06-19T04:10:42;32.88;;;26.40;;
45236;SDS011;30973;51.442;3.580;2023-06-19T04:13:08;33.25;;;25.95;;
45236;SDS011;30973;51.442;3.580;2023-06-19T04:15:35;31.35;;;27.05;;
45236;SDS011;30973;51.442;3.580;2023-06-19T04:18:03;32.92;;;25.75;;
45236;SDS011;30973;51.442;3.580;2023-06-19T04:20:30;35.25;;;27.88;;
45236;SDS011;30973;51.442;3.580;2023-06-19T04:22:56;33.45;;;28.25;;
45236;SDS011;30973;51.442;3.580;2023-06-19T04:25:23;36.10;;;29.02;;
45236;SDS011;30973;51.442;3.580;2023-06-19T04:27:50;38.85;;;31.30;;
45236;SDS011;30973;51.442;3.580;2023-06-19T04:30:17;39.15;;;31.33;;
45236;SDS011;30973;51.442;3.580;2023-06-19T04:32:44;39.25;;;29.80;;
45236;SDS011;30973;51.442;3.580;2023-06-19T04:35:10;36.60;;;29.02;;
45236;SDS011;30973;51.442;3.580;2023-06-19T04:37:37;34.40;;;28.10;;
45236;SDS011;30973;51.442;3.580;2023-06-19T04:40:04;34.60;;;28.02;;
45236;SDS011;30973;51.442;3.580;2023-06-19T04:42:31;33.67;;;27.65;;
45236;SDS011;30973;51.442;3.580;2023-06-19T04:44:57;34.70;;;28.83;;
45236;SDS011;30973;51.442;3.580;2023-06-19T04:47:26;30.38;;;25.58;;
45236;SDS011;30973;51.442;3.580;2023-06-19T04:50:09;35.05;;;26.88;;
45236;SDS011;30973;51.442;3.580;2023-06-19T04:52:35;33.55;;;26.83;;
45236;SDS011;30973;51.442;3.580;2023-06-19T04:55:05;34.38;;;28.48;;
45236;SDS011;30973;51.442;3.580;2023-06-19T04:57:31;33.72;;;26.73;;
45236;SDS011;30973;51.442;3.580;2023-06-19T04:59:58;34.35;;;25.48;;
45236;SDS011;30973;51.442;3.580;2023-06-19T05:02:25;32.95;;;26.73;;
45236;SDS011;30973;51.442;3.580;2023-06-19T05:04:52;32.08;;;25.60;;
45236;SDS011;30973;51.442;3.580;2023-06-19T05:07:18;31.05;;;25.63;;
45236;SDS011;30973;51.442;3.580;2023-06-19T05:09:45;30.58;;;25.27;;
45236;SDS011;30973;51.442;3.580;2023-06-19T05:12:12;31.92;;;26.95;;
45236;SDS011;30973;51.442;3.580;2023-06-19T05:14:38;31.50;;;26.50;;
45236;SDS011;30973;51.442;3.580;2023-06-19T05:17:05;31.45;;;26.45;;
45236;SDS011;30973;51.442;3.580;2023-06-19T05:19:32;32.67;;;24.73;;
45236;SDS011;30973;51.442;3.580;2023-06-19T05:21:59;30.98;;;26.17;;
45236;SDS011;30973;51.442;3.580;2023-06-19T05:24:26;31.00;;;25.30;;
45236;SDS011;30973;51.442;3.580;2023-06-19T05:26:52;29.75;;;24.70;;
45236;SDS011;30973;51.442;3.580;2023-06-19T05:29:19;29.77;;;24.20;;
45236;SDS011;30973;51.442;3.580;2023-06-19T05:31:46;32.13;;;25.77;;
45236;SDS011;30973;51.442;3.580;2023-06-19T05:34:12;30.52;;;24.23;;
45236;SDS011;30973;51.442;3.580;2023-06-19T05:36:39;27.98;;;23.83;;
45236;SDS011;30973;51.442;3.580;2023-06-19T05:39:06;29.65;;;24.60;;
45236;SDS011;30973;51.442;3.580;2023-06-19T05:41:33;29.48;;;24.08;;
45236;SDS011;30973;51.442;3.580;2023-06-19T05:43:59;31.25;;;25.30;;
45236;SDS011;30973;51.442;3.580;2023-06-19T05:46:26;32.30;;;26.25;;
45236;SDS011;30973;51.442;3.580;2023-06-19T05:48:53;29.60;;;24.40;;
45236;SDS011;30973;51.442;3.580;2023-06-19T05:51:21;31.60;;;25.98;;
45236;SDS011;30973;51.442;3.580;2023-06-19T05:53:47;31.30;;;24.95;;
45236;SDS011;30973;51.442;3.580;2023-06-19T05:56:16;31.65;;;24.27;;
45236;SDS011;30973;51.442;3.580;2023-06-19T05:58:43;31.40;;;25.08;;
45236;SDS011;30973;51.442;3.580;2023-06-19T06:01:09;32.25;;;24.80;;
45236;SDS011;30973;51.442;3.580;2023-06-19T06:03:37;31.40;;;26.27;;
45236;SDS011;30973;51.442;3.580;2023-06-19T06:06:03;30.70;;;25.33;;
45236;SDS011;30973;51.442;3.580;2023-06-19T06:08:30;31.85;;;27.25;;
45236;SDS011;30973;51.442;3.580;2023-06-19T06:10:57;30.63;;;25.48;;
45236;SDS011;30973;51.442;3.580;2023-06-19T06:13:24;31.50;;;25.63;;
45236;SDS011;30973;51.442;3.580;2023-06-19T06:15:51;33.03;;;26.15;;
45236;SDS011;30973;51.442;3.580;2023-06-19T06:18:17;31.75;;;24.60;;
45236;SDS011;30973;51.442;3.580;2023-06-19T06:20:44;32.65;;;25.23;;
45236;SDS011;30973;51.442;3.580;2023-06-19T06:23:11;30.73;;;25.38;;
45236;SDS011;30973;51.442;3.580;2023-06-19T06:25:38;33.22;;;24.95;;
45236;SDS011;30973;51.442;3.580;2023-06-19T06:28:07;30.13;;;24.60;;
45236;SDS011;30973;51.442;3.580;2023-06-19T06:30:34;32.83;;;26.05;;
45236;SDS011;30973;51.442;3.580;2023-06-19T06:33:00;33.00;;;25.50;;
45236;SDS011;30973;51.442;3.580;2023-06-19T06:35:27;32.45;;;24.60;;
45236;SDS011;30973;51.442;3.580;2023-06-19T06:37:54;32.25;;;25.27;;
45236;SDS011;30973;51.442;3.580;2023-06-19T06:40:21;34.47;;;25.25;;
45236;SDS011;30973;51.442;3.580;2023-06-19T06:42:48;32.58;;;24.27;;
45236;SDS011;30973;51.442;3.580;2023-06-19T06:45:15;30.33;;;23.15;;
45236;SDS011;30973;51.442;3.580;2023-06-19T06:47:42;28.70;;;23.13;;
45236;SDS011;30973;51.442;3.580;2023-06-19T06:50:09;27.30;;;21.88;;
45236;SDS011;30973;51.442;3.580;2023-06-19T06:52:36;25.83;;;21.13;;
45236;SDS011;30973;51.442;3.580;2023-06-19T06:55:03;29.60;;;22.73;;
45236;SDS011;30973;51.442;3.580;2023-06-19T06:57:30;28.15;;;23.30;;
45236;SDS011;30973;51.442;3.580;2023-06-19T06:59:56;27.65;;;23.27;;
45236;SDS011;30973;51.442;3.580;2023-06-19T07:02:23;27.77;;;22.55;;
45236;SDS011;30973;51.442;3.580;2023-06-19T07:04:50;31.25;;;23.15;;
45236;SDS011;30973;51.442;3.580;2023-06-19T07:07:16;25.80;;;21.75;;
45236;SDS011;30973;51.442;3.580;2023-06-19T07:09:43;27.60;;;22.83;;
45236;SDS011;30973;51.442;3.580;2023-06-19T07:12:10;29.77;;;22.95;;
45236;SDS011;30973;51.442;3.580;2023-06-19T07:14:36;29.88;;;22.85;;
45236;SDS011;30973;51.442;3.580;2023-06-19T07:17:03;27.33;;;22.67;;
45236;SDS011;30973;51.442;3.580;2023-06-19T07:19:30;24.85;;;21.50;;
45236;SDS011;30973;51.442;3.580;2023-06-19T07:21:56;25.15;;;21.35;;
45236;SDS011;30973;51.442;3.580;2023-06-19T07:24:23;27.10;;;21.17;;
45236;SDS011;30973;51.442;3.580;2023-06-19T07:26:50;24.55;;;19.67;;
45236;SDS011;30973;51.442;3.580;2023-06-19T07:29:17;22.27;;;18.88;;
45236;SDS011;30973;51.442;3.580;2023-06-19T07:31:43;24.45;;;20.42;;
45236;SDS011;30973;51.442;3.580;2023-06-19T07:34:10;24.35;;;19.50;;
45236;SDS011;30973;51.442;3.580;2023-06-19T07:36:37;23.17;;;20.63;;
45236;SDS011;30973;51.442;3.580;2023-06-19T07:39:03;24.65;;;19.27;;
45236;SDS011;30973;51.442;3.580;2023-06-19T07:41:30;23.58;;;20.40;;
45236;SDS011;30973;51.442;3.580;2023-06-19T07:43:56;25.88;;;20.70;;
45236;SDS011;30973;51.442;3.580;2023-06-19T07:46:23;24.80;;;20.63;;
45236;SDS011;30973;51.442;3.580;2023-06-19T07:48:50;22.70;;;19.65;;
45236;SDS011;30973;51.442;3.580;2023-06-19T07:51:17;24.10;;;18.30;;
45236;SDS011;30973;51.442;3.580;2023-06-19T07:53:43;21.13;;;16.85;;
45236;SDS011;30973;51.442;3.580;2023-06-19T07:56:10;20.40;;;18.20;;
45236;SDS011;30973;51.442;3.580;2023-06-19T07:58:37;20.85;;;16.52;;
45236;SDS011;30973;51.442;3.580;2023-06-19T08:01:03;18.05;;;14.73;;
45236;SDS011;30973;51.442;3.580;2023-06-19T08:03:30;16.17;;;14.40;;
45236;SDS011;30973;51.442;3.580;2023-06-19T08:05:57;19.48;;;14.55;;
45236;SDS011;30973;51.442;3.580;2023-06-19T08:08:24;16.58;;;14.10;;
45236;SDS011;30973;51.442;3.580;2023-06-19T08:10:50;16.08;;;13.73;;
45236;SDS011;30973;51.442;3.580;2023-06-19T08:13:17;16.42;;;13.20;;
45236;SDS011;30973;51.442;3.580;2023-06-19T08:15:43;17.27;;;13.18;;
45236;SDS011;30973;51.442;3.580;2023-06-19T08:18:11;16.58;;;13.52;;
45236;SDS011;30973;51.442;3.580;2023-06-19T08:20:38;17.35;;;13.13;;
45236;SDS011;30973;51.442;3.580;2023-06-19T08:23:04;15.57;;;12.88;;
45236;SDS011;30973;51.442;3.580;2023-06-19T08:25:32;14.95;;;12.50;;
45236;SDS011;30973;51.442;3.580;2023-06-19T08:27:58;14.20;;;11.88;;
45236;SDS011;30973;51.442;3.580;2023-06-19T08:30:25;14.60;;;12.32;;
45236;SDS011;30973;51.442;3.580;2023-06-19T08:32:53;15.63;;;12.02;;
45236;SDS011;30973;51.442;3.580;2023-06-19T08:35:19;15.13;;;12.18;;
45236;SDS011;30973;51.442;3.580;2023-06-19T08:37:46;15.93;;;11.77;;
45236;SDS011;30973;51.442;3.580;2023-06-19T08:40:13;12.38;;;10.65;;
45236;SDS011;30973;51.442;3.580;2023-06-19T08:42:39;13.73;;;11.55;;
45236;SDS011;30973;51.442;3.580;2023-06-19T08:45:09;14.40;;;11.65;;
45236;SDS011;30973;51.442;3.580;2023-06-19T08:47:37;13.60;;;12.13;;
45236;SDS011;30973;51.442;3.580;2023-06-19T08:50:04;15.75;;;11.18;;
45236;SDS011;30973;51.442;3.580;2023-06-19T08:52:31;15.55;;;11.70;;
45236;SDS011;30973;51.442;3.580;2023-06-19T08:54:58;15.88;;;10.95;;
45236;SDS011;30973;51.442;3.580;2023-06-19T08:57:34;15.38;;;11.38;;
45236;SDS011;30973;51.442;3.580;2023-06-19T09:00:01;13.55;;;11.18;;
45236;SDS011;30973;51.442;3.580;2023-06-19T09:02:42;15.48;;;11.75;;
45236;SDS011;30973;51.442;3.580;2023-06-19T09:07:39;16.27;;;11.57;;
45236;SDS011;30973;51.442;3.580;2023-06-19T09:10:16;16.60;;;11.60;;
45236;SDS011;30973;51.442;3.580;2023-06-19T09:12:58;16.05;;;11.43;;
45236;SDS011;30973;51.442;3.580;2023-06-19T09:15:27;15.15;;;11.25;;
45236;SDS011;30973;51.442;3.580;2023-06-19T09:18:28;17.02;;;11.25;;
45236;SDS011;30973;51.442;3.580;2023-06-19T09:20:46;14.55;;;10.05;;
45236;SDS011;30973;51.442;3.580;2023-06-19T09:23:17;12.75;;;10.48;;
45236;SDS011;30973;51.442;3.580;2023-06-19T09:25:47;16.23;;;10.27;;
45236;SDS011;30973;51.442;3.580;2023-06-19T09:28:18;12.43;;;10.50;;
45236;SDS011;30973;51.442;3.580;2023-06-19T09:30:51;13.13;;;10.73;;
45236;SDS011;30973;51.442;3.580;2023-06-19T09:33:18;16.47;;;10.87;;
45236;SDS011;30973;51.442;3.580;2023-06-19T09:35:47;13.45;;;11.10;;
45236;SDS011;30973;51.442;3.580;2023-06-19T09:38:14;14.20;;;9.57;;
45236;SDS011;30973;51.442;3.580;2023-06-19T09:40:47;12.50;;;9.68;;
45236;SDS011;30973;51.442;3.580;2023-06-19T09:43:22;12.35;;;9.75;;
45236;SDS011;30973;51.442;3.580;2023-06-19T09:45:49;13.18;;;9.75;;
45236;SDS011;30973;51.442;3.580;2023-06-19T09:48:18;13.65;;;9.30;;
45236;SDS011;30973;51.442;3.580;2023-06-19T09:50:52;11.38;;;8.85;;
45236;SDS011;30973;51.442;3.580;2023-06-19T09:53:20;13.18;;;10.07;;
45236;SDS011;30973;51.442;3.580;2023-06-19T09:55:49;13.02;;;9.57;;
45236;SDS011;30973;51.442;3.580;2023-06-19T09:58:19;14.27;;;9.63;;
45236;SDS011;30973;51.442;3.580;2023-06-19T10:00:46;12.20;;;8.80;;
45236;SDS011;30973;51.442;3.580;2023-06-19T10:03:13;14.50;;;9.63;;
45236;SDS011;30973;51.442;3.580;2023-06-19T10:05:40;14.60;;;9.05;;
45236;SDS011;30973;51.442;3.580;2023-06-19T10:08:07;11.73;;;9.10;;
45236;SDS011;30973;51.442;3.580;2023-06-19T10:10:34;9.95;;;8.85;;
45236;SDS011;30973;51.442;3.580;2023-06-19T10:13:11;12.07;;;9.45;;
45236;SDS011;30973;51.442;3.580;2023-06-19T10:15:42;11.95;;;9.48;;
45236;SDS011;30973;51.442;3.580;2023-06-19T10:18:13;10.90;;;8.60;;
45236;SDS011;30973;51.442;3.580;2023-06-19T10:20:40;15.50;;;10.65;;
45236;SDS011;30973;51.442;3.580;2023-06-19T10:23:14;11.85;;;10.02;;
45236;SDS011;30973;51.442;3.580;2023-06-19T10:25:47;16.43;;;10.37;;
45236;SDS011;30973;51.442;3.580;2023-06-19T10:28:21;15.98;;;11.50;;
45236;SDS011;30973;51.442;3.580;2023-06-19T10:33:24;16.33;;;12.00;;
45236;SDS011;30973;51.442;3.580;2023-06-19T10:35:51;16.48;;;12.18;;
45236;SDS011;30973;51.442;3.580;2023-06-19T10:38:18;15.05;;;11.65;;
45236;SDS011;30973;51.442;3.580;2023-06-19T10:40:44;17.10;;;11.02;;
45236;SDS011;30973;51.442;3.580;2023-06-19T10:43:21;15.68;;;11.30;;
45236;SDS011;30973;51.442;3.580;2023-06-19T10:45:49;15.63;;;12.20;;
45236;SDS011;30973;51.442;3.580;2023-06-19T10:48:20;14.07;;;11.10;;
45236;SDS011;30973;51.442;3.580;2023-06-19T10:50:47;15.15;;;11.82;;
45236;SDS011;30973;51.442;3.580;2023-06-19T10:53:29;14.77;;;11.13;;
45236;SDS011;30973;51.442;3.580;2023-06-19T10:55:59;17.60;;;12.40;;
45236;SDS011;30973;51.442;3.580;2023-06-19T10:58:29;15.73;;;12.25;;
45236;SDS011;30973;51.442;3.580;2023-06-19T11:00:56;15.38;;;12.45;;
45236;SDS011;30973;51.442;3.580;2023-06-19T11:03:23;18.40;;;11.38;;
45236;SDS011;30973;51.442;3.580;2023-06-19T11:05:50;15.48;;;12.02;;
45236;SDS011;30973;51.442;3.580;2023-06-19T11:08:23;14.68;;;12.30;;
45236;SDS011;30973;51.442;3.580;2023-06-19T11:10:50;17.03;;;11.93;;
45236;SDS011;30973;51.442;3.580;2023-06-19T11:13:18;15.80;;;12.40;;
45236;SDS011;30973;51.442;3.580;2023-06-19T11:15:45;15.70;;;11.57;;
45236;SDS011;30973;51.442;3.580;2023-06-19T11:18:14;17.17;;;11.32;;
45236;SDS011;30973;51.442;3.580;2023-06-19T11:20:45;16.85;;;12.02;;
45236;SDS011;30973;51.442;3.580;2023-06-19T11:23:12;15.73;;;12.25;;
45236;SDS011;30973;51.442;3.580;2023-06-19T11:25:39;16.48;;;12.10;;
45236;SDS011;30973;51.442;3.580;2023-06-19T11:28:12;15.48;;;11.98;;
45236;SDS011;30973;51.442;3.580;2023-06-19T11:30:44;16.58;;;13.32;;
45236;SDS011;30973;51.442;3.580;2023-06-19T11:35:49;17.33;;;12.05;;
45236;SDS011;30973;51.442;3.580;2023-06-19T11:38:17;16.65;;;12.85;;
45236;SDS011;30973;51.442;3.580;2023-06-19T11:40:44;14.80;;;11.27;;
45236;SDS011;30973;51.442;3.580;2023-06-19T11:43:12;17.20;;;11.57;;
45236;SDS011;30973;51.442;3.580;2023-06-19T11:45:45;16.58;;;11.63;;
45236;SDS011;30973;51.442;3.580;2023-06-19T11:48:13;17.05;;;12.25;;
45236;SDS011;30973;51.442;3.580;2023-06-19T11:50:40;16.90;;;11.85;;
45236;SDS011;30973;51.442;3.580;2023-06-19T11:53:07;14.15;;;11.23;;
45236;SDS011;30973;51.442;3.580;2023-06-19T11:55:34;17.10;;;11.52;;
45236;SDS011;30973;51.442;3.580;2023-06-19T11:58:04;15.38;;;10.20;;
45236;SDS011;30973;51.442;3.580;2023-06-19T12:00:30;19.02;;;11.10;;
45236;SDS011;30973;51.442;3.580;2023-06-19T12:02:57;12.15;;;9.88;;
45236;SDS011;30973;51.442;3.580;2023-06-19T12:05:25;14.05;;;8.68;;
45236;SDS011;30973;51.442;3.580;2023-06-19T12:07:51;16.52;;;9.63;;
45236;SDS011;30973;51.442;3.580;2023-06-19T12:10:18;15.23;;;10.45;;
45236;SDS011;30973;51.442;3.580;2023-06-19T12:12:45;12.05;;;9.27;;
45236;SDS011;30973;51.442;3.580;2023-06-19T12:15:11;14.20;;;8.93;;
45236;SDS011;30973;51.442;3.580;2023-06-19T12:17:38;12.98;;;9.25;;
45236;SDS011;30973;51.442;3.580;2023-06-19T12:20:04;11.93;;;8.93;;
45236;SDS011;30973;51.442;3.580;2023-06-19T12:22:35;17.13;;;9.35;;
45236;SDS011;30973;51.442;3.580;2023-06-19T12:25:01;14.32;;;7.57;;
45236;SDS011;30973;51.442;3.580;2023-06-19T12:27:28;11.85;;;7.72;;
45236;SDS011;30973;51.442;3.580;2023-06-19T12:29:54;11.32;;;7.40;;
45236;SDS011;30973;51.442;3.580;2023-06-19T12:32:21;13.07;;;7.72;;
45236;SDS011;30973;51.442;3.580;2023-06-19T12:34:48;12.48;;;7.38;;
45236;SDS011;30973;51.442;3.580;2023-06-19T12:37:15;11.60;;;7.20;;
45236;SDS011;30973;51.442;3.580;2023-06-19T12:39:41;11.38;;;7.90;;
45236;SDS011;30973;51.442;3.580;2023-06-19T12:42:08;11.30;;;7.20;;
45236;SDS011;30973;51.442;3.580;2023-06-19T12:44:34;11.50;;;8.38;;
45236;SDS011;30973;51.442;3.580;2023-06-19T12:47:01;9.88;;;7.45;;
45236;SDS011;30973;51.442;3.580;2023-06-19T12:49:29;11.38;;;7.13;;
45236;SDS011;30973;51.442;3.580;2023-06-19T12:51:55;13.02;;;7.03;;
45236;SDS011;30973;51.442;3.580;2023-06-19T12:54:22;11.63;;;7.03;;
45236;SDS011;30973;51.442;3.580;2023-06-19T12:56:49;10.27;;;7.28;;
45236;SDS011;30973;51.442;3.580;2023-06-19T12:59:17;12.50;;;7.03;;
45236;SDS011;30973;51.442;3.580;2023-06-19T13:01:44;11.05;;;6.68;;
45236;SDS011;30973;51.442;3.580;2023-06-19T13:04:11;9.50;;;6.63;;
45236;SDS011;30973;51.442;3.580;2023-06-19T13:06:38;11.70;;;7.03;;
45236;SDS011;30973;51.442;3.580;2023-06-19T13:09:05;11.95;;;7.70;;
45236;SDS011;30973;51.442;3.580;2023-06-19T13:11:32;10.15;;;7.38;;
45236;SDS011;30973;51.442;3.580;2023-06-19T13:14:00;9.05;;;6.68;;
45236;SDS011;30973;51.442;3.580;2023-06-19T13:16:27;10.95;;;6.45;;
45236;SDS011;30973;51.442;3.580;2023-06-19T13:19:11;14.13;;;6.63;;
45236;SDS011;30973;51.442;3.580;2023-06-19T13:21:37;9.45;;;5.90;;
45236;SDS011;30973;51.442;3.580;2023-06-19T13:24:04;9.32;;;5.88;;
45236;SDS011;30973;51.442;3.580;2023-06-19T13:26:31;8.75;;;5.47;;
45236;SDS011;30973;51.442;3.580;2023-06-19T13:28:57;10.15;;;5.90;;
45236;SDS011;30973;51.442;3.580;2023-06-19T13:31:25;7.72;;;5.45;;
45236;SDS011;30973;51.442;3.580;2023-06-19T13:33:52;7.90;;;5.65;;
45236;SDS011;30973;51.442;3.580;2023-06-19T13:36:19;10.38;;;5.90;;
45236;SDS011;30973;51.442;3.580;2023-06-19T13:38:46;8.32;;;5.30;;
45236;SDS011;30973;51.442;3.580;2023-06-19T13:41:13;9.75;;;6.22;;
45236;SDS011;30973;51.442;3.580;2023-06-19T13:43:39;7.50;;;5.82;;
45236;SDS011;30973;51.442;3.580;2023-06-19T13:46:06;8.27;;;5.68;;
45236;SDS011;30973;51.442;3.580;2023-06-19T13:48:33;10.95;;;5.93;;
45236;SDS011;30973;51.442;3.580;2023-06-19T13:51:00;9.15;;;5.32;;
45236;SDS011;30973;51.442;3.580;2023-06-19T13:53:26;8.60;;;5.88;;
45236;SDS011;30973;51.442;3.580;2023-06-19T13:55:55;8.50;;;5.20;;
45236;SDS011;30973;51.442;3.580;2023-06-19T13:58:21;6.38;;;4.90;;
45236;SDS011;30973;51.442;3.580;2023-06-19T14:00:48;7.70;;;4.63;;
45236;SDS011;30973;51.442;3.580;2023-06-19T14:03:14;7.85;;;5.13;;
45236;SDS011;30973;51.442;3.580;2023-06-19T14:05:41;7.88;;;5.13;;
45236;SDS011;30973;51.442;3.580;2023-06-19T14:08:08;8.25;;;5.15;;
45236;SDS011;30973;51.442;3.580;2023-06-19T14:10:35;8.80;;;5.80;;
45236;SDS011;30973;51.442;3.580;2023-06-19T14:13:02;9.40;;;5.60;;
45236;SDS011;30973;51.442;3.580;2023-06-19T14:15:28;7.63;;;5.50;;
45236;SDS011;30973;51.442;3.580;2023-06-19T14:17:55;10.07;;;5.82;;
45236;SDS011;30973;51.442;3.580;2023-06-19T14:20:21;10.32;;;6.20;;
45236;SDS011;30973;51.442;3.580;2023-06-19T14:22:49;9.45;;;6.32;;
45236;SDS011;30973;51.442;3.580;2023-06-19T14:25:15;11.25;;;6.00;;
45236;SDS011;30973;51.442;3.580;2023-06-19T14:27:42;9.77;;;6.20;;
45236;SDS011;30973;51.442;3.580;2023-06-19T14:30:08;10.85;;;6.63;;
45236;SDS011;30973;51.442;3.580;2023-06-19T14:32:35;10.13;;;6.55;;
45236;SDS011;30973;51.442;3.580;2023-06-19T14:35:03;13.90;;;6.80;;
45236;SDS011;30973;51.442;3.580;2023-06-19T14:37:30;10.43;;;6.35;;
45236;SDS011;30973;51.442;3.580;2023-06-19T14:39:57;10.93;;;6.20;;